Orrum, NC (28369)

1:21 PM EST on January 16, 2017 (GMT -0500)
Lumberton Municipal | | Change Station
Active Advisory: Flood Warning

Elev 125 ft 34.61 °N, 79.06 °W | Updated 27 minutes ago

Overcast
Overcast
52 °F
Feels Like 52 °F
N
5
Wind Variable Wind from North

Today
High -- | Low -- °F
--% Chance of Precip.
Yesterday
High -- | Low -- °F
Precip. -- in
Pressure 30.38 in
Visibility 10.0 miles
Clouds Overcast 1400 ft
Dew Point 42 °F
Humidity 69%
Rainfall 0.00 in
Snow Depth Not available.
7:21 AM 5:30 PM
Waning Gibbous, 79% visible
METAR KLBT 161754Z AUTO 36004KT 10SM OVC014 11/06 A3038 RMK AO2 SLP286 T01110056 10111 20083 58016
Pressure 30.38 in
Visibility 10.0 miles
Clouds Overcast 1400 ft
Dew Point 42 °F
Humidity 69%
Rainfall 0.00 in
Snow Depth Not available.
7:21 AM 5:30 PM
Waning Gibbous, 79% visible
METAR KLBT 161754Z AUTO 36004KT 10SM OVC014 11/06 A3038 RMK AO2 SLP286 T01110056 10111 20083 58016

Get Your Daily Forecast Email!

Thanks for signing up!

Be on the lookout for a verification email in your inbox.

You'll start receiving the daily forecast at 8 AM.

×

10-Day Weather Forecast

Almanac

Astronomy

Jan. 16, 2017 Rise Set
Actual Time
Civil Twilight
Nautical Twilight
Astronomical Twilight
Moon
Length of Visible Light
Length of Day
Tomorrow will be .
, % of the Moon is Illuminated

Today's Extremes

State Highs State Lows

Community

WunderPhotos

Upload Photos

1,962,540 photos uploaded!

WunderBlog® & News

Nearby

Air Quality

  Air Quality AQ Index Pollutant
Not available.

Snow Depth

Station Depth Elevation

Earthquake Activity

City Distance Mag. Time & Date
Minimum magnitude displayed is 2.5.

Coastal Water Temperatures

Place Temperature

Stations

Nearby Weather Stations

Station Location Temp. Windchill Dew Point Humidity Wind Precip. Elev Updated Type
                   

Watches & Warnings

Flood Warning
Issued: 10:15 AM EST Jan. 16, 2017 – National Weather Service

The Flood Warning continues for
the lumber near Lumberton.
* Until late tonight.
* At 7:00 am Monday the stage was 13.04 feet.
* Flood stage is 13.0 feet.
* Forecast... the river will continue to fall and get below flood stage by this
afternoon.
* Impact... at 13.0 feet... low land flooding will occur along the river. The flood
waters may affect some residential property as water backs up into the
drainage ditches in the city.


Lat... Lon 3467 7916 3468 7904 3457 7891 3452 7899
          3461 7907 3458 7915


43